createdAt,value
2022-10-04T00:01:50.657Z,10.82
2022-10-04T00:04:25.091Z,11.40
2022-10-04T00:06:58.679Z,14.68
2022-10-04T00:09:38.205Z,10.68
2022-10-04T00:12:08.952Z,11.38
2022-10-04T00:14:40.794Z,9.32
2022-10-04T00:17:13.153Z,13.43
2022-10-04T00:19:46.317Z,13.05
2022-10-04T00:22:31.457Z,14.02
2022-10-04T00:25:37.353Z,11.13
2022-10-04T00:28:43.849Z,11.98
2022-10-04T00:31:18.414Z,12.40
2022-10-04T00:33:50.349Z,14.32
2022-10-04T00:36:48.764Z,12.70
2022-10-04T00:39:40.067Z,12.05
2022-10-04T00:42:32.221Z,12.97
2022-10-04T00:45:04.098Z,12.40
2022-10-04T00:47:44.642Z,12.77
2022-10-04T00:50:19.512Z,12.13
2022-10-04T00:52:55.069Z,14.23
2022-10-04T00:55:33.536Z,10.90
2022-10-04T00:58:18.226Z,14.25
2022-10-04T01:00:49.813Z,12.32
2022-10-04T01:03:23.373Z,12.18
2022-10-04T01:06:00.986Z,14.85
2022-10-04T01:08:40.371Z,11.05
2022-10-04T01:11:18.058Z,14.48
2022-10-04T01:13:53.278Z,11.45
2022-10-04T01:16:24.365Z,14.45
2022-10-04T01:18:53.522Z,12.05
2022-10-04T01:21:29.797Z,12.70
2022-10-04T01:24:23.727Z,11.85
2022-10-04T01:26:52.492Z,15.00
2022-10-04T01:29:27.110Z,11.25
2022-10-04T01:32:05.834Z,11.40
2022-10-04T01:34:34.140Z,11.15
2022-10-04T01:37:04.558Z,10.80
2022-10-04T01:39:34.684Z,12.10
2022-10-04T01:42:08.562Z,13.18
2022-10-04T01:44:42.495Z,12.65
2022-10-04T01:47:16.038Z,10.93
2022-10-04T01:49:46.705Z,11.15
2022-10-04T01:52:20.754Z,13.00
2022-10-04T01:54:56.906Z,12.55
2022-10-04T01:57:36.532Z,11.93
2022-10-04T02:00:08.621Z,12.23
2022-10-04T02:02:43.511Z,13.93
2022-10-04T02:05:17.696Z,13.10
2022-10-04T02:07:47.661Z,14.43
2022-10-04T02:10:22.897Z,10.88
2022-10-04T02:12:54.860Z,10.82
2022-10-04T02:15:27.966Z,12.50
2022-10-04T02:17:58.144Z,12.13
2022-10-04T02:20:28.337Z,10.82
2022-10-04T02:23:03.811Z,11.40
2022-10-04T02:25:35.240Z,14.35
2022-10-04T02:28:05.732Z,12.82
2022-10-04T02:30:38.363Z,12.70
2022-10-04T02:33:06.246Z,12.68
2022-10-04T02:35:39.591Z,15.88
2022-10-04T02:38:15.823Z,13.23
2022-10-04T02:40:53.329Z,12.68
2022-10-04T02:43:31.249Z,13.10
2022-10-04T02:46:09.750Z,14.43
2022-10-04T02:48:43.544Z,12.38
2022-10-04T02:51:22.312Z,10.38
2022-10-04T02:54:04.228Z,14.57
2022-10-04T02:56:36.062Z,11.90
2022-10-04T02:59:11.324Z,14.32
2022-10-04T03:01:52.498Z,14.07
2022-10-04T03:04:24.332Z,13.17
2022-10-04T03:06:54.785Z,11.05
2022-10-04T03:09:29.743Z,15.98
2022-10-04T03:12:00.805Z,13.13
2022-10-04T03:14:36.096Z,16.85
2022-10-04T03:17:05.270Z,13.55
2022-10-04T03:19:40.600Z,13.57
2022-10-04T03:22:12.743Z,13.95
2022-10-04T03:24:47.326Z,15.23
2022-10-04T03:27:21.323Z,13.75
2022-10-04T03:29:59.071Z,13.50
2022-10-04T03:32:34.307Z,12.93
2022-10-04T03:35:05.396Z,12.65
2022-10-04T03:37:37.822Z,13.38
2022-10-04T03:40:11.272Z,15.60
2022-10-04T03:42:41.578Z,16.17
2022-10-04T03:45:16.458Z,14.05
2022-10-04T03:47:49.217Z,13.95
2022-10-04T03:50:27.138Z,12.32
2022-10-04T03:52:58.316Z,14.80
2022-10-04T03:55:34.380Z,13.15
2022-10-04T03:58:04.851Z,17.75
2022-10-04T04:00:37.441Z,12.73
2022-10-04T04:03:10.977Z,12.93
2022-10-04T04:05:45.341Z,12.43
2022-10-04T04:08:25.658Z,12.82
2022-10-04T04:10:57.458Z,13.10
2022-10-04T04:13:32.348Z,15.90
2022-10-04T04:16:03.528Z,12.57
2022-10-04T04:18:34.505Z,12.25
2022-10-04T04:21:08.621Z,13.85
2022-10-04T04:23:40.798Z,13.43
2022-10-04T04:26:17.187Z,13.95
2022-10-04T04:28:51.534Z,11.85
2022-10-04T04:31:24.618Z,11.90
2022-10-04T04:34:00.460Z,11.95
2022-10-04T04:36:33.427Z,11.85
2022-10-04T04:39:27.381Z,12.20
2022-10-04T04:41:56.218Z,12.73
2022-10-04T04:44:27.205Z,14.10
2022-10-04T04:46:57.219Z,13.65
2022-10-04T04:49:27.690Z,13.82
2022-10-04T04:51:59.219Z,12.98
2022-10-04T04:54:30.824Z,12.93
2022-10-04T04:57:02.463Z,13.30
2022-10-04T04:59:32.378Z,15.90
2022-10-04T05:02:00.857Z,13.25
2022-10-04T05:04:29.436Z,11.48
2022-10-04T05:07:05.288Z,12.05
2022-10-04T05:09:35.631Z,12.15
2022-10-04T05:12:09.855Z,12.95
2022-10-04T05:14:46.639Z,12.32
2022-10-04T05:17:22.708Z,10.98
2022-10-04T05:19:53.899Z,11.43
2022-10-04T05:22:25.145Z,13.27
2022-10-04T05:24:56.572Z,12.43
2022-10-04T05:27:30.315Z,11.27
2022-10-04T05:30:06.832Z,9.85
2022-10-04T05:32:48.898Z,12.13
2022-10-04T05:35:23.546Z,10.15
2022-10-04T05:38:01.267Z,13.07
2022-10-04T05:40:42.239Z,13.00
2022-10-04T05:43:30.691Z,11.75
2022-10-04T05:46:23.815Z,10.57
2022-10-04T05:49:02.385Z,10.75
2022-10-04T05:51:37.795Z,13.95
2022-10-04T05:54:16.706Z,12.75
2022-10-04T05:57:19.032Z,9.65
2022-10-04T06:00:12.793Z,12.93
2022-10-04T06:03:12.338Z,13.27
2022-10-04T06:05:55.231Z,10.07
2022-10-04T06:08:35.308Z,8.95
2022-10-04T06:11:19.153Z,11.23
2022-10-04T06:14:11.096Z,10.70
2022-10-04T06:16:57.334Z,10.88
2022-10-04T06:19:48.580Z,9.27
2022-10-04T06:22:17.875Z,11.57
2022-10-04T06:24:51.400Z,10.55
2022-10-04T06:27:26.372Z,12.88
2022-10-04T06:30:01.535Z,10.45
2022-10-04T06:32:48.335Z,12.98
2022-10-04T06:35:44.575Z,15.15
2022-10-04T06:38:44.768Z,11.02
2022-10-04T06:41:30.637Z,12.07
2022-10-04T06:44:14.899Z,12.00
2022-10-04T06:46:49.726Z,11.93
2022-10-04T06:49:36.037Z,10.02
2022-10-04T06:52:34.876Z,27.38
2022-10-04T06:55:36.283Z,13.27
2022-10-04T06:58:31.124Z,12.03
2022-10-04T07:01:05.478Z,11.38
2022-10-04T07:03:40.894Z,13.65
2022-10-04T07:06:11.372Z,11.43
2022-10-04T07:08:52.231Z,10.07
2022-10-04T07:11:26.924Z,11.45
2022-10-04T07:14:00.531Z,12.00
2022-10-04T07:16:35.524Z,10.35
2022-10-04T07:19:28.433Z,10.10
2022-10-04T07:22:05.895Z,9.60
2022-10-04T07:24:47.516Z,11.65
2022-10-04T07:27:23.700Z,9.73
2022-10-04T07:29:55.390Z,10.60
2022-10-04T07:32:28.545Z,12.93
2022-10-04T07:35:03.924Z,9.45
2022-10-04T07:37:37.974Z,10.98
2022-10-04T07:40:21.069Z,12.48
2022-10-04T07:42:58.353Z,10.05
2022-10-04T07:45:32.800Z,12.18
2022-10-04T07:48:11.194Z,9.73
2022-10-04T07:50:47.573Z,11.38
2022-10-04T07:53:22.689Z,10.43
2022-10-04T07:56:04.700Z,9.30
2022-10-04T07:58:46.231Z,10.95
2022-10-04T08:01:31.762Z,9.23
2022-10-04T08:04:19.532Z,9.85
2022-10-04T08:06:58.463Z,10.70
2022-10-04T08:09:38.824Z,9.60
2022-10-04T08:12:19.568Z,11.70
2022-10-04T08:14:57.350Z,10.73
2022-10-04T08:17:49.842Z,11.30
2022-10-04T08:20:34.789Z,11.75
2022-10-04T08:23:32.839Z,8.70
2022-10-04T08:26:14.484Z,9.85
2022-10-04T08:29:18.832Z,10.10
2022-10-04T08:32:05.425Z,8.15
2022-10-04T08:35:02.102Z,10.52
2022-10-04T08:37:39.981Z,7.85
2022-10-04T08:40:55.271Z,9.60
2022-10-04T08:44:06.228Z,9.00
2022-10-04T08:47:09.180Z,8.60
2022-10-04T08:50:24.833Z,8.77
2022-10-04T08:53:27.602Z,9.93
2022-10-04T08:56:11.430Z,7.90
2022-10-04T08:59:22.100Z,10.48
2022-10-04T09:02:19.409Z,9.45
2022-10-04T09:05:27.547Z,8.65
2022-10-04T09:08:26.373Z,9.00
2022-10-04T09:11:27.237Z,12.85
2022-10-04T09:14:20.602Z,35.80
2022-10-04T09:16:52.618Z,9.15
2022-10-04T09:19:23.597Z,8.55
2022-10-04T09:22:17.729Z,10.65
2022-10-04T09:25:22.907Z,11.57
2022-10-04T09:28:10.920Z,8.32
2022-10-04T09:30:54.742Z,8.13
2022-10-04T09:34:09.853Z,8.75
2022-10-04T09:36:58.717Z,7.28
2022-10-04T09:40:04.336Z,10.15
2022-10-04T09:43:05.605Z,9.98
2022-10-04T09:45:56.048Z,8.38
2022-10-04T09:48:37.151Z,9.90
2022-10-04T09:51:31.789Z,7.50
2022-10-04T09:54:17.538Z,8.60
2022-10-04T09:57:15.336Z,8.88
2022-10-04T10:00:23.547Z,7.47
2022-10-04T10:03:23.071Z,5.63
2022-10-04T10:06:32.264Z,8.50
2022-10-04T10:09:11.777Z,6.80
2022-10-04T10:12:05.468Z,7.53
2022-10-04T10:15:04.313Z,6.78
2022-10-04T10:17:41.962Z,7.97
2022-10-04T10:20:37.539Z,7.97
2022-10-04T10:23:44.052Z,8.75
2022-10-04T10:26:43.073Z,11.73
2022-10-04T10:29:48.037Z,7.35
2022-10-04T10:32:46.106Z,8.05
2022-10-04T10:35:36.614Z,7.07
2022-10-04T10:38:29.713Z,8.82
2022-10-04T10:41:26.203Z,7.97
2022-10-04T10:44:21.413Z,10.45
2022-10-04T10:47:07.908Z,7.13
2022-10-04T10:49:58.079Z,8.80
2022-10-04T10:53:05.126Z,8.88
2022-10-04T10:56:29.262Z,7.95
2022-10-04T10:59:32.450Z,7.90
2022-10-04T11:02:48.970Z,6.47
2022-10-04T11:06:00.217Z,9.10
2022-10-04T11:08:57.161Z,8.32
2022-10-04T11:11:45.596Z,9.40
2022-10-04T11:14:47.718Z,9.80
2022-10-04T11:17:34.113Z,6.55
2022-10-04T11:20:33.000Z,8.35
2022-10-04T11:23:43.347Z,9.35
2022-10-04T11:26:46.871Z,6.22
2022-10-04T11:29:46.554Z,12.20
2022-10-04T11:33:12.185Z,4.78
2022-10-04T11:36:13.234Z,9.15
2022-10-04T11:39:15.357Z,7.45
2022-10-04T11:41:57.987Z,9.65
2022-10-04T11:45:10.043Z,8.73
2022-10-04T11:47:52.035Z,8.18
2022-10-04T11:50:39.838Z,8.23
2022-10-04T11:53:43.925Z,6.45
2022-10-04T11:56:25.023Z,9.45
2022-10-04T11:59:09.798Z,20.97
2022-10-04T12:02:17.366Z,7.68
2022-10-04T12:05:08.790Z,5.15
2022-10-04T12:07:54.762Z,8.13
2022-10-04T12:10:29.926Z,6.32
2022-10-04T12:13:30.832Z,4.20
2022-10-04T12:16:30.090Z,8.35
2022-10-04T12:19:39.770Z,5.88
2022-10-04T12:22:40.264Z,6.68
2022-10-04T12:25:46.335Z,7.72
2022-10-04T12:28:36.525Z,9.05
2022-10-04T12:31:23.202Z,7.27
2022-10-04T12:34:01.609Z,7.18
2022-10-04T12:36:46.385Z,5.65
2022-10-04T12:39:43.748Z,6.72
2022-10-04T12:42:30.419Z,9.30
2022-10-04T12:45:17.889Z,7.13
2022-10-04T12:48:24.260Z,7.10
2022-10-04T12:51:02.903Z,5.88
2022-10-04T12:53:45.427Z,5.32
2022-10-04T12:56:24.832Z,7.43
2022-10-04T12:59:15.768Z,3.25
2022-10-04T13:01:57.773Z,4.55
2022-10-04T13:04:39.019Z,4.20
2022-10-04T13:07:34.758Z,6.05
2022-10-04T13:10:26.078Z,4.47
2022-10-04T13:13:33.198Z,5.40
2022-10-04T13:19:11.218Z,4.85
2022-10-04T13:22:08.151Z,6.40
2022-10-04T13:24:56.390Z,7.65
2022-10-04T13:27:32.485Z,6.00
2022-10-04T13:30:23.437Z,4.68
2022-10-04T13:33:05.974Z,5.00
2022-10-04T13:35:42.028Z,3.78
2022-10-04T13:38:28.984Z,7.82
2022-10-04T13:41:14.373Z,4.95
2022-10-04T13:44:08.363Z,5.85
2022-10-04T13:46:50.485Z,5.82
2022-10-04T13:49:31.678Z,5.47
2022-10-04T13:52:38.291Z,5.63
2022-10-04T13:55:38.924Z,5.45
2022-10-04T13:58:20.838Z,6.22
2022-10-04T14:01:23.588Z,5.57
2022-10-04T14:04:09.277Z,4.40
2022-10-04T14:07:16.799Z,4.93
2022-10-04T14:10:02.780Z,3.95
2022-10-04T14:13:06.625Z,5.35
2022-10-04T14:16:02.922Z,4.70
2022-10-04T14:19:01.339Z,3.85
2022-10-04T14:22:11.807Z,4.40
2022-10-04T14:25:29.865Z,5.45
2022-10-04T14:28:33.477Z,3.38
2022-10-04T14:31:21.629Z,5.00
2022-10-04T14:34:20.955Z,4.97
2022-10-04T14:37:19.414Z,5.78
2022-10-04T14:40:20.995Z,5.05
2022-10-04T14:43:17.414Z,4.07
2022-10-04T14:46:14.406Z,4.55
2022-10-04T14:48:55.596Z,6.15
2022-10-04T14:51:53.162Z,4.63
2022-10-04T14:54:38.992Z,5.88
2022-10-04T14:57:21.008Z,5.43
2022-10-04T15:00:06.864Z,5.65
2022-10-04T15:03:06.082Z,6.75
2022-10-04T15:06:00.153Z,5.72
2022-10-04T15:08:57.273Z,6.45
2022-10-04T15:11:40.627Z,7.03
2022-10-04T15:14:35.753Z,5.45
2022-10-04T15:17:11.217Z,6.63
2022-10-04T15:19:59.506Z,6.25
2022-10-04T15:22:31.370Z,5.53
2022-10-04T15:25:00.368Z,7.22
2022-10-04T15:27:52.924Z,6.38
2022-10-04T15:30:35.763Z,5.47
2022-10-04T15:33:27.827Z,10.85
2022-10-04T15:36:30.649Z,5.72
2022-10-04T15:39:05.353Z,7.25
2022-10-04T15:41:45.142Z,10.15
2022-10-04T15:44:46.516Z,6.35
2022-10-04T15:47:24.123Z,8.63
2022-10-04T15:50:12.766Z,9.50
2022-10-04T15:53:23.580Z,8.98
2022-10-04T15:56:15.119Z,7.97
2022-10-04T15:59:05.800Z,9.30
2022-10-04T16:01:55.410Z,7.18
2022-10-04T16:04:46.860Z,9.18
2022-10-04T16:07:42.599Z,8.45
2022-10-04T16:10:26.692Z,8.05
2022-10-04T16:13:22.863Z,10.25
2022-10-04T16:16:44.213Z,7.60
2022-10-04T16:19:30.431Z,8.55
2022-10-04T16:22:20.370Z,8.07
2022-10-04T16:24:54.550Z,10.48
2022-10-04T16:28:08.882Z,10.35
2022-10-04T16:30:44.832Z,9.25
2022-10-04T16:33:31.244Z,7.25
2022-10-04T16:36:14.534Z,9.93
2022-10-04T16:39:11.915Z,10.18
2022-10-04T16:41:44.516Z,9.02
2022-10-04T16:44:32.800Z,13.13
2022-10-04T16:47:04.441Z,12.30
2022-10-04T16:49:41.873Z,12.35
2022-10-04T16:52:36.954Z,14.32
2022-10-04T16:55:38.016Z,15.75
2022-10-04T16:58:50.059Z,11.98
2022-10-04T17:02:01.502Z,12.55
2022-10-04T17:05:02.389Z,12.73
2022-10-04T17:08:16.724Z,13.43
2022-10-04T17:11:14.923Z,14.88
2022-10-04T17:13:56.950Z,18.02
2022-10-04T17:16:35.238Z,16.95
2022-10-04T17:19:28.175Z,15.10
2022-10-04T17:22:11.223Z,14.60
2022-10-04T17:24:55.679Z,14.10
2022-10-04T17:27:47.521Z,14.30
2022-10-04T17:30:21.894Z,17.25
2022-10-04T17:33:25.552Z,14.25
2022-10-04T17:36:19.222Z,14.02
2022-10-04T17:39:05.110Z,13.30
2022-10-04T17:41:53.536Z,16.83
2022-10-04T17:44:34.362Z,13.63
2022-10-04T17:47:14.522Z,13.18
2022-10-04T17:50:20.944Z,16.70
2022-10-04T17:53:18.590Z,16.48
2022-10-04T17:55:50.714Z,14.75
2022-10-04T17:58:24.323Z,17.90
2022-10-04T18:01:06.117Z,14.50
2022-10-04T18:03:41.970Z,13.65
2022-10-04T18:06:22.689Z,16.27
2022-10-04T18:08:58.773Z,15.45
2022-10-04T18:11:43.870Z,17.77
2022-10-04T18:14:39.536Z,15.93
2022-10-04T18:17:14.688Z,16.95
2022-10-04T18:20:00.854Z,24.95
2022-10-04T18:22:48.175Z,17.48
2022-10-04T18:25:26.188Z,17.88
2022-10-04T18:28:07.132Z,20.75
2022-10-04T18:30:52.288Z,21.75
2022-10-04T18:33:26.839Z,28.60
2022-10-04T18:36:04.822Z,31.52
2022-10-04T18:38:36.728Z,28.05
2022-10-04T18:43:54.812Z,29.63
2022-10-04T18:46:27.085Z,30.00
2022-10-04T18:49:18.572Z,28.13
2022-10-04T18:51:59.600Z,27.60
2022-10-04T18:54:46.804Z,23.92
2022-10-04T18:57:29.678Z,24.58
2022-10-04T19:00:28.779Z,26.25
2022-10-04T19:03:06.976Z,23.45
2022-10-04T19:05:52.244Z,25.55
2022-10-04T19:08:37.198Z,29.00
2022-10-04T19:11:11.702Z,26.30
2022-10-04T19:13:49.829Z,28.40
2022-10-04T19:16:46.184Z,30.13
2022-10-04T19:19:43.324Z,25.88
2022-10-04T19:22:28.307Z,29.58
2022-10-04T19:25:27.682Z,26.98
2022-10-04T19:28:01.800Z,26.77
2022-10-04T19:30:48.294Z,27.83
2022-10-04T19:33:29.583Z,28.50
2022-10-04T19:36:34.083Z,23.55
2022-10-04T19:39:22.204Z,24.13
2022-10-04T19:42:00.484Z,24.88
2022-10-04T19:44:41.097Z,24.10
2022-10-04T19:47:28.930Z,22.33
2022-10-04T19:50:09.287Z,27.88
2022-10-04T19:52:44.496Z,26.30
2022-10-04T19:55:23.342Z,29.98
2022-10-04T19:57:56.407Z,28.25
2022-10-04T20:00:28.979Z,29.52
2022-10-04T20:02:59.008Z,29.27
2022-10-04T20:05:31.344Z,31.17
2022-10-04T20:08:05.001Z,27.42
2022-10-04T20:10:40.305Z,27.35
2022-10-04T20:13:27.389Z,25.42
2022-10-04T20:16:00.666Z,28.90
2022-10-04T20:19:05.113Z,27.33
2022-10-04T20:21:34.549Z,29.20
2022-10-04T20:24:03.706Z,31.63
2022-10-04T20:26:55.022Z,27.65
2022-10-04T20:30:04.741Z,29.65
2022-10-04T20:33:09.888Z,30.48
2022-10-04T20:36:02.969Z,29.10
2022-10-04T20:38:54.743Z,31.38
2022-10-04T20:42:05.034Z,32.38
2022-10-04T20:44:54.311Z,32.28
2022-10-04T20:47:31.779Z,31.33
2022-10-04T20:50:01.932Z,32.35
2022-10-04T20:52:38.166Z,32.15
2022-10-04T20:55:19.357Z,33.03
2022-10-04T20:57:51.083Z,33.93
2022-10-04T21:00:27.977Z,29.65
2022-10-04T21:03:17.755Z,35.13
2022-10-04T21:06:02.289Z,29.77
2022-10-04T21:08:32.548Z,35.75
2022-10-04T21:11:18.316Z,36.28
2022-10-04T21:14:02.148Z,36.08
2022-10-04T21:16:52.511Z,34.13
2022-10-04T21:19:33.098Z,38.40
2022-10-04T21:22:09.158Z,40.60
2022-10-04T21:24:43.483Z,36.90
2022-10-04T21:27:16.717Z,35.70
2022-10-04T21:29:55.331Z,37.13
2022-10-04T21:32:36.767Z,34.97
2022-10-04T21:35:08.441Z,35.58
2022-10-04T21:37:39.579Z,36.92
2022-10-04T21:40:11.441Z,36.47
2022-10-04T21:42:42.001Z,33.03
2022-10-04T21:45:17.005Z,32.80
2022-10-04T21:47:47.355Z,31.35
2022-10-04T21:50:19.305Z,29.70
2022-10-04T21:52:51.026Z,30.48
2022-10-04T21:55:19.289Z,30.42
2022-10-04T21:57:51.342Z,27.73
2022-10-04T22:00:23.197Z,31.00
2022-10-04T22:02:53.959Z,28.80
2022-10-04T22:05:24.381Z,31.75
2022-10-04T22:07:55.167Z,27.55
2022-10-04T22:10:25.520Z,34.65
2022-10-04T22:12:57.225Z,33.45
2022-10-04T22:17:57.262Z,36.20
2022-10-04T22:20:30.211Z,34.90
2022-10-04T22:23:00.537Z,36.30
2022-10-04T22:25:37.343Z,37.67
2022-10-04T22:28:20.210Z,41.17
2022-10-04T22:30:52.229Z,37.90
2022-10-04T22:33:38.223Z,38.53
2022-10-04T22:36:19.095Z,36.78
2022-10-04T22:38:51.275Z,36.38
2022-10-04T22:41:21.694Z,38.83
2022-10-04T22:43:55.432Z,33.78
2022-10-04T22:46:35.998Z,33.90
2022-10-04T22:49:11.890Z,31.30
2022-10-04T22:51:57.817Z,29.58
2022-10-04T22:54:33.547Z,36.25
2022-10-04T22:57:04.727Z,36.55
2022-10-04T22:59:37.881Z,32.28
2022-10-04T23:02:15.007Z,34.83
2022-10-04T23:04:47.155Z,35.83
2022-10-04T23:07:17.721Z,37.92
2022-10-04T23:09:49.189Z,34.22
2022-10-04T23:12:18.945Z,31.50
2022-10-04T23:14:48.894Z,32.83
2022-10-04T23:17:28.348Z,37.20
2022-10-04T23:20:02.757Z,36.55
2022-10-04T23:22:32.587Z,35.08
2022-10-04T23:25:01.701Z,37.20
2022-10-04T23:27:30.609Z,38.47
2022-10-04T23:30:04.043Z,41.17
2022-10-04T23:32:34.490Z,39.35
2022-10-04T23:35:06.249Z,38.15
2022-10-04T23:37:41.507Z,39.83
2022-10-04T23:40:19.171Z,37.92
2022-10-04T23:42:49.603Z,38.35
2022-10-04T23:45:25.245Z,42.97
2022-10-04T23:47:58.484Z,47.33
2022-10-04T23:50:32.557Z,40.85
2022-10-04T23:53:12.715Z,43.45
2022-10-04T23:55:43.257Z,48.22
2022-10-04T23:58:15.762Z,43.10
